sensor_id;sensor_type;location;lat;lon;timestamp;pressure;altitude;pressure_sealevel;temperature;humidity
41688;BME280;27371;42.686;23.362;2023-06-05T00:03:43;166256.25;;;15.55;95.78
41688;BME280;27371;42.686;23.362;2023-06-05T00:06:09;166252.22;;;15.53;95.58
41688;BME280;27371;42.686;23.362;2023-06-05T00:08:35;166257.59;;;15.55;95.49
41688;BME280;27371;42.686;23.362;2023-06-05T00:11:00;166246.84;;;15.51;95.68
41688;BME280;27371;42.686;23.362;2023-06-05T00:13:26;166230.78;;;15.45;95.56
41688;BME280;27371;42.686;23.362;2023-06-05T00:15:51;166233.44;;;15.46;95.73
41688;BME280;27371;42.686;23.362;2023-06-05T00:18:18;166198.63;;;15.33;95.85
41688;BME280;27371;42.686;23.362;2023-06-05T00:20:43;166202.63;;;15.34;95.77
41688;BME280;27371;42.686;23.362;2023-06-05T00:23:09;166218.69;;;15.41;95.44
41688;BME280;27371;42.686;23.362;2023-06-05T00:25:37;166216.03;;;15.40;95.40
41688;BME280;27371;42.686;23.362;2023-06-05T00:28:03;166203.97;;;15.35;95.30
41688;BME280;27371;42.686;23.362;2023-06-05T00:30:28;166210.66;;;15.37;95.36
41688;BME280;27371;42.686;23.362;2023-06-05T00:32:55;166205.34;;;15.35;95.45
41688;BME280;27371;42.686;23.362;2023-06-05T00:35:20;166205.34;;;15.35;95.35
41688;BME280;27371;42.686;23.362;2023-06-05T00:37:46;166199.97;;;15.33;95.11
41688;BME280;27371;42.686;23.362;2023-06-05T00:40:12;166197.25;;;15.32;95.03
41688;BME280;27371;42.686;23.362;2023-06-05T00:42:37;166197.25;;;15.32;95.02
41688;BME280;27371;42.686;23.362;2023-06-05T00:45:03;166197.25;;;15.32;94.90
41688;BME280;27371;42.686;23.362;2023-06-05T00:47:29;166167.78;;;15.21;94.61
41688;BME280;27371;42.686;23.362;2023-06-05T00:49:55;166189.22;;;15.29;94.45
41688;BME280;27371;42.686;23.362;2023-06-05T00:52:21;166175.81;;;15.24;94.65
41688;BME280;27371;42.686;23.362;2023-06-05T00:54:47;166183.91;;;15.27;94.92
41688;BME280;27371;42.686;23.362;2023-06-05T00:57:13;166175.81;;;15.24;95.10
41688;BME280;27371;42.686;23.362;2023-06-05T00:59:39;166175.81;;;15.24;95.02
41688;BME280;27371;42.686;23.362;2023-06-05T01:02:05;166179.84;;;15.26;94.96
41688;BME280;27371;42.686;23.362;2023-06-05T01:04:31;166179.84;;;15.26;95.07
41688;BME280;27371;42.686;23.362;2023-06-05T01:07:02;166182.50;;;15.27;94.78
41688;BME280;27371;42.686;23.362;2023-06-05T01:09:29;166189.22;;;15.29;94.84
41688;BME280;27371;42.686;23.362;2023-06-05T01:12:03;166175.81;;;15.24;94.72
41688;BME280;27371;42.686;23.362;2023-06-05T01:14:31;166165.13;;;15.20;94.96
41688;BME280;27371;42.686;23.362;2023-06-05T01:16:59;166162.47;;;15.19;94.95
41688;BME280;27371;42.686;23.362;2023-06-05T01:19:28;166158.41;;;15.18;95.26
41688;BME280;27371;42.686;23.362;2023-06-05T01:21:57;166151.72;;;15.15;95.25
41688;BME280;27371;42.686;23.362;2023-06-05T01:24:23;166146.34;;;15.13;95.14
41688;BME280;27371;42.686;23.362;2023-06-05T01:26:57;166147.72;;;15.13;95.07
41688;BME280;27371;42.686;23.362;2023-06-05T01:32:32;166116.88;;;15.02;95.00
41688;BME280;27371;42.686;23.362;2023-06-05T01:35:07;166111.53;;;15.00;95.52
41688;BME280;27371;42.686;23.362;2023-06-05T01:37:36;166103.47;;;14.97;95.36
41688;BME280;27371;42.686;23.362;2023-06-05T01:40:16;166099.47;;;14.95;95.53
41688;BME280;27371;42.686;23.362;2023-06-05T01:42:43;166092.78;;;14.92;95.74
41688;BME280;27371;42.686;23.362;2023-06-05T01:45:11;166084.75;;;14.89;95.98
41688;BME280;27371;42.686;23.362;2023-06-05T01:47:37;166080.69;;;14.88;96.04
41688;BME280;27371;42.686;23.362;2023-06-05T01:50:05;166064.63;;;14.82;96.33
41688;BME280;27371;42.686;23.362;2023-06-05T01:52:32;166036.50;;;14.71;96.80
41688;BME280;27371;42.686;23.362;2023-06-05T01:54:57;166055.28;;;14.78;96.99
41688;BME280;27371;42.686;23.362;2023-06-05T01:57:28;166052.56;;;14.77;97.12
41688;BME280;27371;42.686;23.362;2023-06-05T01:59:54;166056.59;;;14.79;97.24
41688;BME280;27371;42.686;23.362;2023-06-05T02:02:20;166053.94;;;14.78;97.32
41688;BME280;27371;42.686;23.362;2023-06-05T02:04:48;166060.59;;;14.80;97.40
41688;BME280;27371;42.686;23.362;2023-06-05T02:07:14;166065.97;;;14.82;96.91
41688;BME280;27371;42.686;23.362;2023-06-05T02:09:43;166068.69;;;14.83;96.91
41688;BME280;27371;42.686;23.362;2023-06-05T02:12:08;166071.34;;;14.84;96.54
41688;BME280;27371;42.686;23.362;2023-06-05T02:14:34;166074.00;;;14.85;96.60
41688;BME280;27371;42.686;23.362;2023-06-05T02:17:03;166071.34;;;14.84;96.29
41688;BME280;27371;42.686;23.362;2023-06-05T02:19:32;165992.31;;;14.54;95.85
41688;BME280;27371;42.686;23.362;2023-06-05T02:21:58;166067.28;;;14.83;96.08
41688;BME280;27371;42.686;23.362;2023-06-05T02:24:23;166053.94;;;14.78;96.09
41688;BME280;27371;42.686;23.362;2023-06-05T02:26:50;166049.91;;;14.76;95.97
41688;BME280;27371;42.686;23.362;2023-06-05T02:29:15;166044.53;;;14.74;96.05
41688;BME280;27371;42.686;23.362;2023-06-05T02:31:41;166039.22;;;14.72;96.48
41688;BME280;27371;42.686;23.362;2023-06-05T02:34:06;166048.56;;;14.76;96.88
41688;BME280;27371;42.686;23.362;2023-06-05T02:36:32;166045.84;;;14.75;97.30
41688;BME280;27371;42.686;23.362;2023-06-05T02:39:02;166035.16;;;14.70;97.53
41688;BME280;27371;42.686;23.362;2023-06-05T02:41:29;166017.78;;;14.64;98.20
41688;BME280;27371;42.686;23.362;2023-06-05T02:43:56;165994.97;;;14.55;98.79
41688;BME280;27371;42.686;23.362;2023-06-05T02:46:22;166001.66;;;14.58;98.84
41688;BME280;27371;42.686;23.362;2023-06-05T02:48:50;165994.97;;;14.55;99.55
41688;BME280;27371;42.686;23.362;2023-06-05T02:51:16;165994.97;;;14.55;99.55
41688;BME280;27371;42.686;23.362;2023-06-05T02:53:41;165948.06;;;14.37;99.34
41688;BME280;27371;42.686;23.362;2023-06-05T02:56:07;165989.63;;;14.53;99.76
41688;BME280;27371;42.686;23.362;2023-06-05T02:58:32;165956.09;;;14.40;99.91
41688;BME280;27371;42.686;23.362;2023-06-05T03:01:01;165992.31;;;14.54;99.93
41688;BME280;27371;42.686;23.362;2023-06-05T03:03:30;165970.81;;;14.46;100.00
41688;BME280;27371;42.686;23.362;2023-06-05T03:06:00;165977.50;;;14.48;100.00
41688;BME280;27371;42.686;23.362;2023-06-05T03:08:36;165958.75;;;14.41;100.00
41688;BME280;27371;42.686;23.362;2023-06-05T03:11:05;165957.41;;;14.41;100.00
41688;BME280;27371;42.686;23.362;2023-06-05T03:13:31;165996.34;;;14.56;100.00
41688;BME280;27371;42.686;23.362;2023-06-05T03:15:58;166047.25;;;14.75;100.00
41688;BME280;27371;42.686;23.362;2023-06-05T03:18:29;166076.72;;;14.86;100.00
41688;BME280;27371;42.686;23.362;2023-06-05T03:20:56;166074.00;;;14.85;99.11
41688;BME280;27371;42.686;23.362;2023-06-05T03:23:26;166118.19;;;15.02;98.91
41688;BME280;27371;42.686;23.362;2023-06-05T03:25:54;166157.09;;;15.17;99.31
41688;BME280;27371;42.686;23.362;2023-06-05T03:28:21;166244.19;;;15.50;99.08
41688;BME280;27371;42.686;23.362;2023-06-05T03:30:47;166320.59;;;15.79;97.61
41688;BME280;27371;42.686;23.362;2023-06-05T03:33:13;166384.94;;;16.04;94.59
41688;BME280;27371;42.686;23.362;2023-06-05T03:35:40;166468.09;;;16.36;92.99
41688;BME280;27371;42.686;23.362;2023-06-05T03:38:08;166544.47;;;16.65;89.54
41688;BME280;27371;42.686;23.362;2023-06-05T03:40:33;166611.63;;;16.90;87.92
41688;BME280;27371;42.686;23.362;2023-06-05T03:42:59;166676.00;;;17.15;85.74
41688;BME280;27371;42.686;23.362;2023-06-05T03:45:25;166761.88;;;17.48;85.25
41688;BME280;27371;42.686;23.362;2023-06-05T03:47:53;166877.25;;;17.92;82.37
41688;BME280;27371;42.686;23.362;2023-06-05T03:50:20;166959.16;;;18.23;80.51
41688;BME280;27371;42.686;23.362;2023-06-05T03:52:46;167014.16;;;18.44;78.06
41688;BME280;27371;42.686;23.362;2023-06-05T03:55:18;167047.72;;;18.57;76.21
41688;BME280;27371;42.686;23.362;2023-06-05T03:57:46;167015.53;;;18.44;75.38
41688;BME280;27371;42.686;23.362;2023-06-05T04:00:12;167002.09;;;18.39;75.90
41688;BME280;27371;42.686;23.362;2023-06-05T04:02:40;166959.16;;;18.23;76.31
41688;BME280;27371;42.686;23.362;2023-06-05T04:05:05;167016.88;;;18.45;77.06
41688;BME280;27371;42.686;23.362;2023-06-05T04:07:31;167131.03;;;18.88;75.76
41688;BME280;27371;42.686;23.362;2023-06-05T04:09:57;167204.88;;;19.17;74.48
41688;BME280;27371;42.686;23.362;2023-06-05T04:12:22;167241.13;;;19.30;73.28
41688;BME280;27371;42.686;23.362;2023-06-05T04:14:48;167229.03;;;19.26;72.94
41688;BME280;27371;42.686;23.362;2023-06-05T04:17:13;167114.88;;;18.82;70.83
41688;BME280;27371;42.686;23.362;2023-06-05T04:19:40;167003.44;;;18.40;73.00
41688;BME280;27371;42.686;23.362;2023-06-05T04:22:06;166914.88;;;18.06;75.58
41688;BME280;27371;42.686;23.362;2023-06-05T04:24:31;166859.84;;;17.85;77.96
41688;BME280;27371;42.686;23.362;2023-06-05T04:26:57;166851.78;;;17.82;79.15
41688;BME280;27371;42.686;23.362;2023-06-05T04:29:26;166849.13;;;17.81;79.49
41688;BME280;27371;42.686;23.362;2023-06-05T04:31:52;166838.31;;;17.77;79.03
41688;BME280;27371;42.686;23.362;2023-06-05T04:34:18;166815.50;;;17.68;79.45
41688;BME280;27371;42.686;23.362;2023-06-05T04:36:44;166814.19;;;17.68;79.68
41688;BME280;27371;42.686;23.362;2023-06-05T04:39:10;166792.72;;;17.59;79.73
41688;BME280;27371;42.686;23.362;2023-06-05T04:41:43;166767.19;;;17.50;80.48
41688;BME280;27371;42.686;23.362;2023-06-05T04:44:15;166780.63;;;17.55;80.99
41688;BME280;27371;42.686;23.362;2023-06-05T04:46:47;166815.50;;;17.68;80.98
41688;BME280;27371;42.686;23.362;2023-06-05T04:49:14;166854.47;;;17.83;79.82
41688;BME280;27371;42.686;23.362;2023-06-05T04:51:41;166902.78;;;18.01;79.64
41688;BME280;27371;42.686;23.362;2023-06-05T04:54:09;166894.72;;;17.98;79.50
41688;BME280;27371;42.686;23.362;2023-06-05T04:56:34;166889.34;;;17.96;79.77
41688;BME280;27371;42.686;23.362;2023-06-05T04:59:01;166877.25;;;17.92;80.03
41688;BME280;27371;42.686;23.362;2023-06-05T05:01:28;166843.75;;;17.79;80.46
41688;BME280;27371;42.686;23.362;2023-06-05T05:03:53;166798.09;;;17.62;81.73
41688;BME280;27371;42.686;23.362;2023-06-05T05:06:20;166808.81;;;17.66;82.35
41688;BME280;27371;42.686;23.362;2023-06-05T05:08:46;166804.75;;;17.64;82.86
41688;BME280;27371;42.686;23.362;2023-06-05T05:11:15;166846.41;;;17.80;82.36
41688;BME280;27371;42.686;23.362;2023-06-05T05:13:42;166835.66;;;17.76;82.33
41688;BME280;27371;42.686;23.362;2023-06-05T05:16:08;166896.06;;;17.99;81.72
41688;BME280;27371;42.686;23.362;2023-06-05T05:18:35;166916.19;;;18.07;82.15
41688;BME280;27371;42.686;23.362;2023-06-05T05:21:02;166916.19;;;18.07;81.42
41688;BME280;27371;42.686;23.362;2023-06-05T05:23:28;166961.81;;;18.24;81.58
41688;BME280;27371;42.686;23.362;2023-06-05T05:25:53;166990.00;;;18.35;81.03
41688;BME280;27371;42.686;23.362;2023-06-05T05:28:19;167002.09;;;18.39;80.75
41688;BME280;27371;42.686;23.362;2023-06-05T05:30:45;166959.16;;;18.23;81.68
41688;BME280;27371;42.686;23.362;2023-06-05T05:33:11;167000.78;;;18.39;82.15
41688;BME280;27371;42.686;23.362;2023-06-05T05:35:36;167045.06;;;18.56;81.48
41688;BME280;27371;42.686;23.362;2023-06-05T05:38:02;167137.69;;;18.91;80.43
41688;BME280;27371;42.686;23.362;2023-06-05T05:40:27;167231.69;;;19.27;78.54
41688;BME280;27371;42.686;23.362;2023-06-05T05:42:53;167243.78;;;19.31;78.05
41688;BME280;27371;42.686;23.362;2023-06-05T05:45:18;167245.13;;;19.32;77.77
41688;BME280;27371;42.686;23.362;2023-06-05T05:47:44;167269.34;;;19.41;78.30
41688;BME280;27371;42.686;23.362;2023-06-05T05:50:09;167306.91;;;19.55;77.59
41688;BME280;27371;42.686;23.362;2023-06-05T05:52:35;167359.34;;;19.75;76.35
41688;BME280;27371;42.686;23.362;2023-06-05T05:55:01;167378.16;;;19.83;74.63
41688;BME280;27371;42.686;23.362;2023-06-05T05:57:28;167314.97;;;19.58;75.17
41688;BME280;27371;42.686;23.362;2023-06-05T05:59:55;167356.66;;;19.74;76.51
41688;BME280;27371;42.686;23.362;2023-06-05T06:02:20;167411.72;;;19.95;76.09
41688;BME280;27371;42.686;23.362;2023-06-05T06:04:46;167422.47;;;19.99;74.27
41688;BME280;27371;42.686;23.362;2023-06-05T06:07:12;167472.19;;;20.18;73.97
41688;BME280;27371;42.686;23.362;2023-06-05T06:09:38;167538.03;;;20.43;72.97
41688;BME280;27371;42.686;23.362;2023-06-05T06:12:04;167611.97;;;20.72;69.17
41688;BME280;27371;42.686;23.362;2023-06-05T06:14:35;167589.13;;;20.63;69.46
41688;BME280;27371;42.686;23.362;2023-06-05T06:17:01;167652.31;;;20.87;68.97
41688;BME280;27371;42.686;23.362;2023-06-05T06:19:28;167691.25;;;21.02;67.62
41688;BME280;27371;42.686;23.362;2023-06-05T06:21:54;167714.09;;;21.10;66.28
41688;BME280;27371;42.686;23.362;2023-06-05T06:24:20;167680.47;;;20.98;66.85
41688;BME280;27371;42.686;23.362;2023-06-05T06:26:47;167679.16;;;20.97;66.38
41688;BME280;27371;42.686;23.362;2023-06-05T06:29:19;167633.47;;;20.80;66.72
41688;BME280;27371;42.686;23.362;2023-06-05T06:31:49;167546.06;;;20.46;68.76
41688;BME280;27371;42.686;23.362;2023-06-05T06:34:15;167548.75;;;20.47;69.27
41688;BME280;27371;42.686;23.362;2023-06-05T06:36:42;167555.47;;;20.50;69.75
41688;BME280;27371;42.686;23.362;2023-06-05T06:39:12;167618.69;;;20.74;68.74
41688;BME280;27371;42.686;23.362;2023-06-05T06:41:38;167614.63;;;20.73;67.45
41688;BME280;27371;42.686;23.362;2023-06-05T06:44:04;167610.63;;;20.71;67.61
41688;BME280;27371;42.686;23.362;2023-06-05T06:46:31;167622.69;;;20.76;66.57
41688;BME280;27371;42.686;23.362;2023-06-05T06:48:57;167583.75;;;20.61;66.27
41688;BME280;27371;42.686;23.362;2023-06-05T06:51:23;167568.97;;;20.55;66.67
41688;BME280;27371;42.686;23.362;2023-06-05T06:53:48;167529.97;;;20.40;67.46
41688;BME280;27371;42.686;23.362;2023-06-05T06:56:15;167540.69;;;20.44;67.03
41688;BME280;27371;42.686;23.362;2023-06-05T06:58:42;167504.41;;;20.31;67.66
41688;BME280;27371;42.686;23.362;2023-06-05T07:01:08;167508.47;;;20.32;67.52
41688;BME280;27371;42.686;23.362;2023-06-05T07:03:34;167548.75;;;20.47;68.65
41688;BME280;27371;42.686;23.362;2023-06-05T07:06:01;167607.91;;;20.70;66.80
41688;BME280;27371;42.686;23.362;2023-06-05T07:08:27;167616.03;;;20.73;66.11
41688;BME280;27371;42.686;23.362;2023-06-05T07:10:53;167611.97;;;20.72;65.84
41688;BME280;27371;42.686;23.362;2023-06-05T07:13:22;167554.13;;;20.50;66.77
41688;BME280;27371;42.686;23.362;2023-06-05T07:15:48;167516.53;;;20.35;67.20
41688;BME280;27371;42.686;23.362;2023-06-05T07:18:14;167523.25;;;20.38;67.60
41688;BME280;27371;42.686;23.362;2023-06-05T07:20:39;167548.75;;;20.47;67.81
41688;BME280;27371;42.686;23.362;2023-06-05T07:23:05;167560.84;;;20.52;67.30
41688;BME280;27371;42.686;23.362;2023-06-05T07:25:31;167622.69;;;20.76;66.78
41688;BME280;27371;42.686;23.362;2023-06-05T07:27:57;167638.84;;;20.82;66.61
41688;BME280;27371;42.686;23.362;2023-06-05T07:30:25;167641.53;;;20.83;66.46
41688;BME280;27371;42.686;23.362;2023-06-05T07:32:51;167660.34;;;20.90;64.85
41688;BME280;27371;42.686;23.362;2023-06-05T07:35:17;167626.75;;;20.77;65.59
41688;BME280;27371;42.686;23.362;2023-06-05T07:37:42;167654.97;;;20.88;65.51
41688;BME280;27371;42.686;23.362;2023-06-05T07:40:08;167664.38;;;20.91;65.16
41688;BME280;27371;42.686;23.362;2023-06-05T07:42:34;167673.81;;;20.95;65.42
41688;BME280;27371;42.686;23.362;2023-06-05T07:45:00;167707.38;;;21.08;64.58
41688;BME280;27371;42.686;23.362;2023-06-05T07:47:26;167724.88;;;21.15;64.66
41688;BME280;27371;42.686;23.362;2023-06-05T07:49:59;167751.72;;;21.25;63.55
41688;BME280;27371;42.686;23.362;2023-06-05T07:52:28;167797.50;;;21.42;63.15
41688;BME280;27371;42.686;23.362;2023-06-05T07:54:53;167816.31;;;21.49;62.26
41688;BME280;27371;42.686;23.362;2023-06-05T07:57:22;167793.44;;;21.41;62.61
41688;BME280;27371;42.686;23.362;2023-06-05T07:59:50;167743.66;;;21.22;63.82
41688;BME280;27371;42.686;23.362;2023-06-05T08:02:17;167841.88;;;21.59;63.94
41688;BME280;27371;42.686;23.362;2023-06-05T08:04:43;167847.22;;;21.61;62.42
41688;BME280;27371;42.686;23.362;2023-06-05T08:07:08;167871.44;;;21.70;62.20
41688;BME280;27371;42.686;23.362;2023-06-05T08:09:34;167917.13;;;21.88;62.34
41688;BME280;27371;42.686;23.362;2023-06-05T08:12:02;167966.88;;;22.07;60.15
41688;BME280;27371;42.686;23.362;2023-06-05T08:14:28;167941.31;;;21.97;60.89
41688;BME280;27371;42.686;23.362;2023-06-05T08:16:53;167961.50;;;22.05;61.19
41688;BME280;27371;42.686;23.362;2023-06-05T08:19:21;167949.44;;;22.00;60.49
41688;BME280;27371;42.686;23.362;2023-06-05T08:21:46;167902.34;;;21.82;61.38
41688;BME280;27371;42.686;23.362;2023-06-05T08:24:12;167852.59;;;21.63;61.69
41688;BME280;27371;42.686;23.362;2023-06-05T08:26:38;167890.22;;;21.77;61.83
41688;BME280;27371;42.686;23.362;2023-06-05T08:29:04;167921.19;;;21.89;61.78
41688;BME280;27371;42.686;23.362;2023-06-05T08:31:30;167918.47;;;21.88;61.24
41688;BME280;27371;42.686;23.362;2023-06-05T08:33:59;167910.41;;;21.85;61.37
41688;BME280;27371;42.686;23.362;2023-06-05T08:36:24;167910.41;;;21.85;61.11
41688;BME280;27371;42.686;23.362;2023-06-05T08:38:50;167949.44;;;22.00;60.76
41688;BME280;27371;42.686;23.362;2023-06-05T08:41:15;167941.31;;;21.97;61.34
41688;BME280;27371;42.686;23.362;2023-06-05T08:43:42;167962.84;;;22.05;60.33
41688;BME280;27371;42.686;23.362;2023-06-05T08:46:10;167972.28;;;22.09;59.93
41688;BME280;27371;42.686;23.362;2023-06-05T08:48:47;167901.00;;;21.82;60.51
41688;BME280;27371;42.686;23.362;2023-06-05T08:51:15;167891.63;;;21.78;61.64
41688;BME280;27371;42.686;23.362;2023-06-05T08:54:03;167983.00;;;22.13;61.81
41688;BME280;27371;42.686;23.362;2023-06-05T08:56:40;168054.34;;;22.40;60.34
41688;BME280;27371;42.686;23.362;2023-06-05T08:59:07;168133.69;;;22.70;58.24
41688;BME280;27371;42.686;23.362;2023-06-05T09:01:32;168071.81;;;22.46;58.28
41688;BME280;27371;42.686;23.362;2023-06-05T09:03:58;168078.53;;;22.49;58.58
41688;BME280;27371;42.686;23.362;2023-06-05T09:06:23;168122.91;;;22.66;58.05
41688;BME280;27371;42.686;23.362;2023-06-05T09:08:49;168140.44;;;22.73;57.23
41688;BME280;27371;42.686;23.362;2023-06-05T09:11:26;168120.25;;;22.65;57.43
41688;BME280;27371;42.686;23.362;2023-06-05T09:13:54;168094.72;;;22.55;56.77
41688;BME280;27371;42.686;23.362;2023-06-05T09:16:22;168059.75;;;22.42;57.44
41688;BME280;27371;42.686;23.362;2023-06-05T09:18:52;168074.53;;;22.48;57.71
41688;BME280;27371;42.686;23.362;2023-06-05T09:21:18;168040.91;;;22.35;57.47
41688;BME280;27371;42.686;23.362;2023-06-05T09:23:44;168023.44;;;22.28;57.76
41688;BME280;27371;42.686;23.362;2023-06-05T09:26:10;168032.81;;;22.32;57.83
41688;BME280;27371;42.686;23.362;2023-06-05T09:28:52;168040.91;;;22.35;57.49
41688;BME280;27371;42.686;23.362;2023-06-05T09:31:19;168066.47;;;22.44;57.64
41688;BME280;27371;42.686;23.362;2023-06-05T09:33:53;168044.94;;;22.36;56.38
41688;BME280;27371;42.686;23.362;2023-06-05T09:36:19;168034.16;;;22.32;56.86
41688;BME280;27371;42.686;23.362;2023-06-05T09:38:46;168030.16;;;22.31;56.47
41688;BME280;27371;42.686;23.362;2023-06-05T09:41:13;168024.75;;;22.29;56.55
41688;BME280;27371;42.686;23.362;2023-06-05T09:43:46;168027.44;;;22.30;56.23
41688;BME280;27371;42.686;23.362;2023-06-05T09:46:15;168015.38;;;22.25;56.02
41688;BME280;27371;42.686;23.362;2023-06-05T09:48:42;167999.19;;;22.19;56.40
41688;BME280;27371;42.686;23.362;2023-06-05T09:53:45;167966.88;;;22.07;56.17
41688;BME280;27371;42.686;23.362;2023-06-05T09:56:14;167965.56;;;22.06;55.80
41688;BME280;27371;42.686;23.362;2023-06-05T09:58:48;167925.19;;;21.91;55.23
41688;BME280;27371;42.686;23.362;2023-06-05T10:01:19;167895.63;;;21.79;56.49
41688;BME280;27371;42.686;23.362;2023-06-05T10:03:59;167833.81;;;21.56;58.82
41688;BME280;27371;42.686;23.362;2023-06-05T10:06:29;167871.44;;;21.70;59.66
41688;BME280;27371;42.686;23.362;2023-06-05T10:08:55;167863.38;;;21.67;59.94
41688;BME280;27371;42.686;23.362;2023-06-05T10:11:23;167883.50;;;21.75;60.64
41688;BME280;27371;42.686;23.362;2023-06-05T10:13:50;167892.94;;;21.78;60.31
41688;BME280;27371;42.686;23.362;2023-06-05T10:16:18;167915.81;;;21.87;60.53
41688;BME280;27371;42.686;23.362;2023-06-05T10:18:48;167919.81;;;21.89;60.01
41688;BME280;27371;42.686;23.362;2023-06-05T10:21:15;167922.53;;;21.90;59.68
41688;BME280;27371;42.686;23.362;2023-06-05T10:24:02;167946.72;;;21.99;60.50
41688;BME280;27371;42.686;23.362;2023-06-05T10:40:32;168038.22;;;22.34;59.51
41688;BME280;27371;42.686;23.362;2023-06-05T10:43:24;168016.69;;;22.26;59.95
41688;BME280;27371;42.686;23.362;2023-06-05T10:45:50;168019.38;;;22.27;60.30
41688;BME280;27371;42.686;23.362;2023-06-05T10:48:15;168008.63;;;22.22;60.86
41688;BME280;27371;42.686;23.362;2023-06-05T10:50:42;168027.44;;;22.30;61.26
41688;BME280;27371;42.686;23.362;2023-06-05T10:53:07;168022.09;;;22.28;61.84
41688;BME280;27371;42.686;23.362;2023-06-05T10:55:52;168008.63;;;22.22;62.81
41688;BME280;27371;42.686;23.362;2023-06-05T10:58:18;168019.38;;;22.27;62.51
41688;BME280;27371;42.686;23.362;2023-06-05T11:01:16;168004.59;;;22.21;62.28
41688;BME280;27371;42.686;23.362;2023-06-05T11:03:58;167992.41;;;22.16;62.15
41688;BME280;27371;42.686;23.362;2023-06-05T11:06:26;168012.66;;;22.24;62.69
41688;BME280;27371;42.686;23.362;2023-06-05T11:09:15;167977.63;;;22.11;63.18
41688;BME280;27371;42.686;23.362;2023-06-05T11:12:00;168011.31;;;22.23;63.62
41688;BME280;27371;42.686;23.362;2023-06-05T11:14:46;167991.06;;;22.16;63.20
41688;BME280;27371;42.686;23.362;2023-06-05T11:17:34;168044.94;;;22.36;62.45
41688;BME280;27371;42.686;23.362;2023-06-05T11:20:02;168071.81;;;22.46;62.49
41688;BME280;27371;42.686;23.362;2023-06-05T11:22:31;168094.72;;;22.55;61.52
41688;BME280;27371;42.686;23.362;2023-06-05T11:27:58;168140.44;;;22.73;60.14
41688;BME280;27371;42.686;23.362;2023-06-05T11:30:29;168167.34;;;22.83;57.82
41688;BME280;27371;42.686;23.362;2023-06-05T11:33:07;168219.84;;;23.03;57.51
41688;BME280;27371;42.686;23.362;2023-06-05T11:35:35;168244.06;;;23.12;56.19
41688;BME280;27371;42.686;23.362;2023-06-05T11:38:08;168285.78;;;23.28;56.53
41688;BME280;27371;42.686;23.362;2023-06-05T11:40:34;168371.88;;;23.61;55.80
41688;BME280;27371;42.686;23.362;2023-06-05T11:43:06;168445.94;;;23.89;54.98
41688;BME280;27371;42.686;23.362;2023-06-05T11:45:33;168468.81;;;23.97;53.37
41688;BME280;27371;42.686;23.362;2023-06-05T11:50:32;168515.94;;;24.15;53.93
41688;BME280;27371;42.686;23.362;2023-06-05T11:53:10;168501.13;;;24.10;53.99
41688;BME280;27371;42.686;23.362;2023-06-05T11:55:39;168553.63;;;24.30;52.45
41688;BME280;27371;42.686;23.362;2023-06-05T11:58:27;168491.69;;;24.06;52.46
41688;BME280;27371;42.686;23.362;2023-06-05T12:03:29;168525.34;;;24.19;52.98
41688;BME280;27371;42.686;23.362;2023-06-05T12:05:55;168501.13;;;24.10;51.77
41688;BME280;27371;42.686;23.362;2023-06-05T12:08:24;168491.69;;;24.06;51.96
41688;BME280;27371;42.686;23.362;2023-06-05T12:10:51;168559.03;;;24.32;51.28
41688;BME280;27371;42.686;23.362;2023-06-05T12:13:17;168565.75;;;24.34;50.22
41688;BME280;27371;42.686;23.362;2023-06-05T12:15:42;168603.50;;;24.49;50.71
41688;BME280;27371;42.686;23.362;2023-06-05T12:18:08;168612.91;;;24.52;50.64
41688;BME280;27371;42.686;23.362;2023-06-05T12:20:39;168595.41;;;24.46;50.55
41688;BME280;27371;42.686;23.362;2023-06-05T12:23:05;168611.56;;;24.52;51.09
41688;BME280;27371;42.686;23.362;2023-06-05T12:25:32;168561.69;;;24.33;51.07
41688;BME280;27371;42.686;23.362;2023-06-05T12:27:57;168534.75;;;24.22;52.06
41688;BME280;27371;42.686;23.362;2023-06-05T12:30:23;168521.28;;;24.17;50.88
41688;BME280;27371;42.686;23.362;2023-06-05T12:32:48;168459.41;;;23.94;50.66
41688;BME280;27371;42.686;23.362;2023-06-05T12:35:23;168431.16;;;23.83;50.25
41688;BME280;27371;42.686;23.362;2023-06-05T12:37:59;168254.84;;;23.16;50.30
41688;BME280;27371;42.686;23.362;2023-06-05T12:40:25;168319.41;;;23.41;51.41
41688;BME280;27371;42.686;23.362;2023-06-05T12:42:50;168328.81;;;23.44;51.11
41688;BME280;27371;42.686;23.362;2023-06-05T12:45:16;168304.63;;;23.35;51.13
41688;BME280;27371;42.686;23.362;2023-06-05T12:47:42;168280.38;;;23.26;51.68
41688;BME280;27371;42.686;23.362;2023-06-05T12:50:10;168326.09;;;23.43;51.66
41688;BME280;27371;42.686;23.362;2023-06-05T12:52:39;168315.38;;;23.39;50.84
41688;BME280;27371;42.686;23.362;2023-06-05T12:55:05;168383.97;;;23.65;50.94
41688;BME280;27371;42.686;23.362;2023-06-05T12:57:32;168382.63;;;23.65;50.93
41688;BME280;27371;42.686;23.362;2023-06-05T12:59:59;168393.41;;;23.69;50.23
41688;BME280;27371;42.686;23.362;2023-06-05T13:02:26;168371.88;;;23.61;50.41
41688;BME280;27371;42.686;23.362;2023-06-05T13:04:53;168375.91;;;23.62;49.97
41688;BME280;27371;42.686;23.362;2023-06-05T13:07:18;168428.47;;;23.82;50.33
41688;BME280;27371;42.686;23.362;2023-06-05T13:09:46;168344.97;;;23.50;49.98
41688;BME280;27371;42.686;23.362;2023-06-05T13:12:12;168437.88;;;23.86;49.93
41688;BME280;27371;42.686;23.362;2023-06-05T13:14:38;168432.47;;;23.84;49.73